Time;durP1;ratioP1;P1;durP2;ratioP2;P2;SDS_P1;SDS_P2;PMS_P1;PMS_P2;Temp;Humidity;BMP_temperature;BMP_pressure;BME280_temperature;BME280_humidity;BME280_pressure;Samples;Min_cycle;Max_cycle;Signal;HPM_P1;HPM_P2
2022/08/30 00:01:01;;;;;;;5.47;1.42;;;;;;;;;;4987884;28;20025;-66
2022/08/30 00:02:00;;;;;;;6.53;1.60;;;;;;;;;;5000116;28;20068;-66
2022/08/30 00:04:26;;;;;;;6.18;1.33;;;;;;;;;;5003113;28;20033;-66
2022/08/30 00:06:52;;;;;;;4.60;1.25;;;;;;;;;;4999119;28;20128;-66
2022/08/30 00:09:18;;;;;;;6.03;1.60;;;;;;;;;;5001518;28;20025;-67
2022/08/30 00:11:44;;;;;;;5.57;1.52;;;;;;;;;;4999288;28;20491;-66
2022/08/30 00:14:10;;;;;;;5.72;1.58;;;;;;;;;;4982886;28;20479;-68
2022/08/30 00:16:36;;;;;;;5.30;1.40;;;;;;;;;;4999949;28;20036;-66
2022/08/30 00:19:03;;;;;;;7.55;1.58;;;;;;;;;;5001541;28;20695;-64
2022/08/30 00:21:29;;;;;;;4.97;1.25;;;;;;;;;;5003429;28;20460;-65
2022/08/30 00:23:55;;;;;;;4.68;1.40;;;;;;;;;;4982292;28;20033;-65
2022/08/30 00:26:21;;;;;;;6.28;1.60;;;;;;;;;;5002927;28;20022;-65
2022/08/30 00:28:47;;;;;;;7.13;1.77;;;;;;;;;;4998420;28;20036;-65
2022/08/30 00:31:13;;;;;;;6.60;1.50;;;;;;;;;;4984393;28;20053;-65
2022/08/30 00:33:39;;;;;;;4.80;1.20;;;;;;;;;;4999768;28;20033;-65
2022/08/30 00:36:06;;;;;;;7.15;1.40;;;;;;;;;;5003185;28;20049;-65
2022/08/30 00:38:32;;;;;;;5.97;1.60;;;;;;;;;;5003644;28;20289;-65
2022/08/30 00:40:58;;;;;;;5.60;1.40;;;;;;;;;;4997710;28;20029;-66
2022/08/30 00:43:27;;;;;;;6.72;1.63;;;;;;;;;;4986747;28;20055;-65
2022/08/30 00:45:53;;;;;;;4.90;1.40;;;;;;;;;;4999515;28;20030;-65
2022/08/30 00:48:19;;;;;;;6.10;1.63;;;;;;;;;;5001408;28;20092;-65
2022/08/30 00:50:52;;;;;;;5.85;1.55;;;;;;;;;;5000438;28;20037;-65
2022/08/30 00:53:21;;;;;;;6.32;1.50;;;;;;;;;;4985243;28;20240;-65
2022/08/30 00:55:48;;;;;;;6.13;1.58;;;;;;;;;;4998665;28;20253;-66
2022/08/30 00:58:20;;;;;;;10.85;2.03;;;;;;;;;;5001484;28;20575;-65
2022/08/30 01:00:47;;;;;;;6.28;1.80;;;;;;;;;;4998606;28;20059;-65
2022/08/30 01:03:13;;;;;;;5.28;1.65;;;;;;;;;;4999497;28;20079;-65
2022/08/30 01:05:39;;;;;;;6.75;1.80;;;;;;;;;;4983411;28;20053;-65
2022/08/30 01:08:05;;;;;;;7.00;1.63;;;;;;;;;;5001971;28;20455;-65
2022/08/30 01:10:33;;;;;;;8.10;1.60;;;;;;;;;;5003114;28;20541;-66
2022/08/30 01:12:59;;;;;;;5.47;1.40;;;;;;;;;;4984421;28;20040;-66
2022/08/30 01:15:26;;;;;;;6.07;1.48;;;;;;;;;;5006639;28;20133;-65
2022/08/30 01:17:52;;;;;;;7.43;1.50;;;;;;;;;;5003104;28;20037;-66
2022/08/30 01:20:27;;;;;;;5.10;1.50;;;;;;;;;;5006102;28;20025;-66
2022/08/30 01:22:53;;;;;;;6.30;1.70;;;;;;;;;;4985861;28;20681;-66
2022/08/30 01:25:24;;;;;;;6.63;1.80;;;;;;;;;;5005528;28;20021;-66
2022/08/30 01:27:53;;;;;;;4.85;1.60;;;;;;;;;;4984351;28;20204;-66
2022/08/30 01:30:19;;;;;;;9.43;1.60;;;;;;;;;;4984803;28;20152;-66
2022/08/30 01:32:47;;;;;;;8.30;1.98;;;;;;;;;;5002195;28;20037;-66
2022/08/30 01:35:15;;;;;;;6.70;1.70;;;;;;;;;;5002266;28;20065;-66
2022/08/30 01:37:42;;;;;;;9.32;1.90;;;;;;;;;;5002465;28;20152;-66
2022/08/30 01:40:09;;;;;;;5.80;1.80;;;;;;;;;;5003959;28;20025;-66
2022/08/30 01:42:35;;;;;;;7.45;1.73;;;;;;;;;;5005774;28;20018;-66
2022/08/30 01:45:01;;;;;;;6.30;2.00;;;;;;;;;;5005230;28;20025;-66
2022/08/30 01:47:27;;;;;;;7.55;1.77;;;;;;;;;;5006391;28;20200;-66
2022/08/30 01:49:53;;;;;;;7.40;1.83;;;;;;;;;;5000901;28;20709;-66
2022/08/30 01:52:20;;;;;;;6.18;1.60;;;;;;;;;;5006461;28;20044;-66
2022/08/30 01:54:47;;;;;;;6.07;1.80;;;;;;;;;;5001050;28;20471;-66
2022/08/30 01:57:15;;;;;;;6.93;1.80;;;;;;;;;;5003528;28;20037;-66
2022/08/30 01:59:42;;;;;;;5.82;1.90;;;;;;;;;;5000897;28;20060;-66
2022/08/30 02:02:08;;;;;;;5.95;1.80;;;;;;;;;;5004051;28;20037;-66
2022/08/30 02:04:35;;;;;;;6.65;1.77;;;;;;;;;;5004990;28;20753;-66
2022/08/30 02:07:02;;;;;;;5.68;1.92;;;;;;;;;;5003935;28;20055;-66
2022/08/30 02:09:28;;;;;;;5.28;1.80;;;;;;;;;;5005281;28;20064;-66
2022/08/30 02:11:54;;;;;;;6.20;1.63;;;;;;;;;;4986246;28;20387;-66
2022/08/30 02:14:21;;;;;;;5.68;1.60;;;;;;;;;;4987734;28;20033;-65
2022/08/30 02:16:47;;;;;;;5.75;1.58;;;;;;;;;;5001836;28;20036;-66
2022/08/30 02:19:13;;;;;;;5.80;1.40;;;;;;;;;;4988200;28;20040;-66
2022/08/30 02:21:39;;;;;;;4.43;1.50;;;;;;;;;;5002379;28;20466;-66
2022/08/30 02:24:05;;;;;;;4.65;1.27;;;;;;;;;;4986206;28;20140;-65
2022/08/30 02:26:32;;;;;;;4.53;1.38;;;;;;;;;;5003206;28;20055;-65
2022/08/30 02:28:58;;;;;;;5.75;1.58;;;;;;;;;;5002583;28;20724;-65
2022/08/30 02:31:25;;;;;;;4.70;1.33;;;;;;;;;;4989395;28;20119;-64
2022/08/30 02:33:52;;;;;;;4.78;1.45;;;;;;;;;;4982945;28;20037;-66
2022/08/30 02:36:19;;;;;;;5.65;1.85;;;;;;;;;;5005635;28;20096;-65
2022/08/30 02:38:46;;;;;;;6.03;1.88;;;;;;;;;;4984061;28;20124;-65
2022/08/30 02:41:12;;;;;;;9.88;2.30;;;;;;;;;;5002201;28;20439;-65
2022/08/30 02:43:38;;;;;;;8.00;2.30;;;;;;;;;;5003870;28;20475;-65
2022/08/30 02:46:05;;;;;;;7.72;2.20;;;;;;;;;;4985661;28;20034;-65
2022/08/30 02:48:31;;;;;;;7.70;2.13;;;;;;;;;;4986628;28;20037;-65
2022/08/30 02:51:03;;;;;;;7.00;2.35;;;;;;;;;;5001041;28;20068;-65
2022/08/30 02:53:29;;;;;;;6.60;2.00;;;;;;;;;;5004687;28;20826;-65
2022/08/30 02:55:56;;;;;;;6.20;2.00;;;;;;;;;;4984041;28;21867;-65
2022/08/30 02:58:22;;;;;;;6.10;1.77;;;;;;;;;;5002870;28;20033;-65
2022/08/30 03:00:48;;;;;;;4.85;1.30;;;;;;;;;;5001131;28;20030;-65
2022/08/30 03:03:14;;;;;;;6.85;1.60;;;;;;;;;;5005381;28;20528;-65
2022/08/30 03:05:40;;;;;;;6.28;1.65;;;;;;;;;;4983725;28;20165;-64
2022/08/30 03:08:07;;;;;;;5.65;1.77;;;;;;;;;;5004733;28;20192;-64
2022/08/30 03:10:33;;;;;;;5.53;1.65;;;;;;;;;;5005249;28;20530;-65
2022/08/30 03:12:59;;;;;;;6.32;1.80;;;;;;;;;;5000069;28;20520;-65
2022/08/30 03:15:26;;;;;;;5.78;1.70;;;;;;;;;;4986179;28;20416;-65
2022/08/30 03:17:53;;;;;;;7.18;1.70;;;;;;;;;;4982560;28;20068;-65
2022/08/30 03:20:19;;;;;;;5.90;1.50;;;;;;;;;;5004327;28;20104;-65
2022/08/30 03:22:45;;;;;;;6.15;1.40;;;;;;;;;;4998152;28;20431;-64
2022/08/30 03:25:12;;;;;;;6.03;1.77;;;;;;;;;;5005212;28;20551;-65
2022/08/30 03:27:38;;;;;;;5.68;1.60;;;;;;;;;;4998524;28;20029;-65
2022/08/30 03:30:05;;;;;;;7.03;1.50;;;;;;;;;;4985338;28;20037;-65
2022/08/30 03:32:31;;;;;;;7.65;1.90;;;;;;;;;;5004235;28;20049;-65
2022/08/30 03:34:58;;;;;;;6.45;1.58;;;;;;;;;;5001101;28;20887;-65
2022/08/30 03:37:24;;;;;;;6.43;1.58;;;;;;;;;;5002142;28;20095;-65
2022/08/30 03:39:50;;;;;;;6.57;1.63;;;;;;;;;;5000186;28;20029;-66
2022/08/30 03:42:16;;;;;;;5.38;1.50;;;;;;;;;;5001821;28;20040;-65
2022/08/30 03:44:43;;;;;;;4.30;1.40;;;;;;;;;;4984932;28;20025;-66
2022/08/30 03:47:09;;;;;;;4.63;1.50;;;;;;;;;;5002301;28;20352;-65
2022/08/30 03:49:35;;;;;;;5.20;1.65;;;;;;;;;;5002398;28;20535;-65
2022/08/30 03:52:01;;;;;;;5.57;1.60;;;;;;;;;;5002968;28;20037;-66
2022/08/30 03:54:27;;;;;;;6.03;1.60;;;;;;;;;;5002530;28;20685;-65
2022/08/30 03:56:54;;;;;;;5.70;1.45;;;;;;;;;;5001113;28;20029;-64
2022/08/30 03:59:21;;;;;;;5.05;1.50;;;;;;;;;;5005406;28;20132;-65
2022/08/30 04:01:47;;;;;;;6.10;1.65;;;;;;;;;;4999150;28;20091;-65
2022/08/30 04:04:13;;;;;;;6.47;1.60;;;;;;;;;;4985943;28;20029;-65
2022/08/30 04:06:39;;;;;;;6.43;1.60;;;;;;;;;;4983752;28;20801;-66
2022/08/30 04:09:06;;;;;;;7.15;1.70;;;;;;;;;;5001818;28;20022;-65
2022/08/30 04:11:32;;;;;;;6.43;1.60;;;;;;;;;;4983319;28;20508;-65
2022/08/30 04:13:58;;;;;;;6.78;1.90;;;;;;;;;;4983831;28;20033;-65
2022/08/30 04:16:25;;;;;;;8.25;1.90;;;;;;;;;;4983247;28;20164;-65
2022/08/30 04:18:51;;;;;;;5.88;1.50;;;;;;;;;;4999524;28;20045;-65
2022/08/30 04:21:18;;;;;;;5.30;1.45;;;;;;;;;;5002202;28;20436;-65
2022/08/30 04:23:45;;;;;;;5.93;1.60;;;;;;;;;;5001702;28;20036;-65
2022/08/30 04:26:11;;;;;;;6.53;1.80;;;;;;;;;;4984886;28;20570;-64
2022/08/30 04:28:38;;;;;;;6.43;1.70;;;;;;;;;;4999695;28;20128;-64
2022/08/30 04:31:11;;;;;;;5.93;1.60;;;;;;;;;;4986146;28;20033;-65
2022/08/30 04:33:38;;;;;;;6.78;1.80;;;;;;;;;;4996461;28;20120;-65
2022/08/30 04:36:05;;;;;;;5.75;1.77;;;;;;;;;;4987171;28;20118;-65
2022/08/30 04:38:31;;;;;;;8.88;1.80;;;;;;;;;;5004270;28;20048;-66
2022/08/30 04:40:57;;;;;;;8.07;1.90;;;;;;;;;;4982190;28;20041;-65
2022/08/30 04:43:26;;;;;;;13.88;2.70;;;;;;;;;;5002347;28;20125;-66
2022/08/30 04:45:53;;;;;;;13.57;2.55;;;;;;;;;;4997325;28;20446;-65
2022/08/30 04:48:19;;;;;;;38.83;3.90;;;;;;;;;;5006188;28;20033;-65
2022/08/30 04:50:46;;;;;;;23.48;3.30;;;;;;;;;;5000354;28;20481;-64
2022/08/30 04:53:12;;;;;;;12.23;2.65;;;;;;;;;;5006469;28;20047;-64
2022/08/30 04:55:39;;;;;;;7.20;2.20;;;;;;;;;;5003522;28;20045;-65
2022/08/30 04:58:05;;;;;;;11.10;2.72;;;;;;;;;;5006171;28;20164;-64
2022/08/30 05:00:32;;;;;;;10.77;2.50;;;;;;;;;;4991412;28;20701;-64
2022/08/30 05:02:58;;;;;;;12.32;2.72;;;;;;;;;;5004155;28;20029;-64
2022/08/30 05:05:39;;;;;;;7.50;2.00;;;;;;;;;;4984581;28;20026;-65
2022/08/30 05:08:10;;;;;;;6.60;1.70;;;;;;;;;;5005793;28;20483;-65
2022/08/30 05:10:44;;;;;;;8.52;2.20;;;;;;;;;;4982455;28;20029;-65
2022/08/30 05:13:11;;;;;;;6.65;2.00;;;;;;;;;;5005968;28;20085;-64
2022/08/30 05:15:39;;;;;;;6.00;1.65;;;;;;;;;;5003051;28;20025;-65
2022/08/30 05:18:06;;;;;;;10.00;2.28;;;;;;;;;;5006062;28;20450;-65
2022/08/30 05:20:33;;;;;;;7.75;2.65;;;;;;;;;;5007160;28;20168;-66
2022/08/30 05:22:59;;;;;;;10.82;2.80;;;;;;;;;;5001647;28;20021;-65
2022/08/30 05:25:27;;;;;;;8.00;2.50;;;;;;;;;;5002611;28;20025;-65
2022/08/30 05:27:54;;;;;;;9.00;2.95;;;;;;;;;;5001798;28;20136;-65
2022/08/30 05:30:21;;;;;;;7.53;2.70;;;;;;;;;;5004387;28;20106;-65
2022/08/30 05:32:48;;;;;;;10.52;4.07;;;;;;;;;;4982611;28;20604;-65
2022/08/30 05:35:15;;;;;;;15.10;5.35;;;;;;;;;;4988143;28;20132;-64
2022/08/30 05:37:41;;;;;;;13.20;5.70;;;;;;;;;;5003357;28;20115;-65
2022/08/30 05:40:07;;;;;;;14.00;6.20;;;;;;;;;;5005490;28;20022;-65
2022/08/30 05:42:34;;;;;;;15.32;6.85;;;;;;;;;;5005012;28;20135;-65
2022/08/30 05:45:01;;;;;;;13.30;6.78;;;;;;;;;;5003167;28;20178;-65
2022/08/30 05:47:27;;;;;;;11.43;5.78;;;;;;;;;;5005721;28;20340;-65
2022/08/30 05:49:53;;;;;;;13.90;5.88;;;;;;;;;;4999690;28;20045;-65
2022/08/30 05:52:20;;;;;;;14.40;6.03;;;;;;;;;;5004795;28;20467;-65
2022/08/30 05:54:51;;;;;;;12.73;5.90;;;;;;;;;;5002274;28;20025;-65
2022/08/30 05:57:18;;;;;;;12.57;5.75;;;;;;;;;;5002294;28;20045;-65
2022/08/30 05:59:45;;;;;;;12.63;4.80;;;;;;;;;;4999805;28;20079;-65
2022/08/30 06:02:11;;;;;;;13.30;5.30;;;;;;;;;;5002319;28;20511;-65
2022/08/30 06:04:37;;;;;;;12.88;5.40;;;;;;;;;;5001333;28;20061;-65
2022/08/30 06:07:03;;;;;;;11.32;4.35;;;;;;;;;;4990267;28;20037;-65
2022/08/30 06:09:30;;;;;;;13.13;4.47;;;;;;;;;;5003853;28;20367;-66
2022/08/30 06:11:56;;;;;;;32.95;6.05;;;;;;;;;;5001108;28;22295;-65
2022/08/30 06:14:22;;;;;;;25.85;6.00;;;;;;;;;;4988920;28;20155;-66
2022/08/30 06:16:49;;;;;;;17.17;5.03;;;;;;;;;;4999061;28;20120;-66
2022/08/30 06:19:16;;;;;;;14.50;4.53;;;;;;;;;;4984598;28;20361;-66
2022/08/30 06:21:43;;;;;;;13.77;3.95;;;;;;;;;;5000088;28;20041;-66
2022/08/30 06:24:10;;;;;;;8.95;3.70;;;;;;;;;;5004876;28;20590;-66
2022/08/30 06:26:40;;;;;;;12.13;3.53;;;;;;;;;;4999795;28;20060;-65
2022/08/30 06:29:06;;;;;;;10.48;3.40;;;;;;;;;;5004116;28;20219;-66
2022/08/30 06:31:32;;;;;;;10.55;3.00;;;;;;;;;;5002870;28;20112;-66
2022/08/30 06:33:58;;;;;;;11.32;2.88;;;;;;;;;;4983196;28;20566;-65
2022/08/30 06:36:25;;;;;;;9.57;2.95;;;;;;;;;;5003104;28;20570;-67
2022/08/30 06:38:52;;;;;;;8.52;2.70;;;;;;;;;;4985573;28;20441;-66
2022/08/30 06:41:20;;;;;;;8.60;3.10;;;;;;;;;;5005420;28;20025;-66
2022/08/30 06:43:46;;;;;;;11.57;3.42;;;;;;;;;;5000880;28;20071;-66
2022/08/30 06:46:16;;;;;;;10.15;3.25;;;;;;;;;;5005619;28;20549;-65
2022/08/30 06:48:42;;;;;;;10.05;2.83;;;;;;;;;;5003301;28;20388;-65
2022/08/30 06:51:09;;;;;;;9.23;2.80;;;;;;;;;;5002750;28;20218;-65
2022/08/30 06:53:35;;;;;;;10.68;2.80;;;;;;;;;;5001241;28;20120;-65
2022/08/30 06:56:03;;;;;;;14.73;3.30;;;;;;;;;;5003164;28;20025;-66
2022/08/30 06:58:31;;;;;;;9.45;2.25;;;;;;;;;;5003816;28;20087;-66
2022/08/30 07:00:58;;;;;;;9.65;2.95;;;;;;;;;;5002997;28;20105;-66
2022/08/30 07:03:26;;;;;;;8.77;2.80;;;;;;;;;;5003918;28;20083;-66
2022/08/30 07:05:52;;;;;;;8.30;2.70;;;;;;;;;;5000343;28;20030;-66
2022/08/30 07:08:19;;;;;;;8.30;2.28;;;;;;;;;;5004759;28;20060;-66
2022/08/30 07:10:45;;;;;;;7.72;2.33;;;;;;;;;;5000985;28;20060;-66
2022/08/30 07:13:11;;;;;;;10.27;2.53;;;;;;;;;;5002353;28;20040;-66
2022/08/30 07:15:40;;;;;;;11.35;2.30;;;;;;;;;;5000911;28;20033;-66
2022/08/30 07:20:51;;;;;;;8.82;2.08;;;;;;;;;;4999579;28;20427;-66
2022/08/30 07:23:17;;;;;;;9.75;2.40;;;;;;;;;;5002778;28;20030;-65
2022/08/30 07:25:43;;;;;;;9.00;2.25;;;;;;;;;;5001977;28;20067;-67
2022/08/30 07:28:09;;;;;;;8.27;2.20;;;;;;;;;;5003999;28;20106;-66
2022/08/30 07:30:35;;;;;;;8.07;2.20;;;;;;;;;;4986397;28;20486;-67
2022/08/30 07:33:02;;;;;;;8.00;2.25;;;;;;;;;;5001844;28;20030;-66
2022/08/30 07:35:28;;;;;;;7.43;2.45;;;;;;;;;;5003666;28;20206;-67
2022/08/30 07:37:55;;;;;;;6.72;1.83;;;;;;;;;;4999459;28;20161;-66
2022/08/30 07:40:21;;;;;;;6.28;1.83;;;;;;;;;;5004127;28;20128;-67
2022/08/30 07:42:47;;;;;;;8.80;2.55;;;;;;;;;;4999701;28;20132;-65
2022/08/30 07:45:13;;;;;;;6.80;2.00;;;;;;;;;;5001185;28;20414;-67
2022/08/30 07:47:40;;;;;;;9.40;2.38;;;;;;;;;;4999309;28;20471;-65
2022/08/30 07:50:07;;;;;;;7.85;1.88;;;;;;;;;;5003914;28;20057;-66
2022/08/30 07:52:33;;;;;;;7.07;1.92;;;;;;;;;;4987839;28;20455;-66
2022/08/30 07:55:00;;;;;;;6.85;2.10;;;;;;;;;;4982612;28;20377;-67
2022/08/30 07:57:30;;;;;;;8.18;2.30;;;;;;;;;;5004533;28;20107;-67
2022/08/30 07:59:56;;;;;;;6.63;1.80;;;;;;;;;;4999355;28;21410;-66
2022/08/30 08:02:22;;;;;;;5.60;1.83;;;;;;;;;;4984255;28;20060;-67
2022/08/30 08:04:48;;;;;;;6.85;2.10;;;;;;;;;;4983280;28;20044;-66
2022/08/30 08:07:14;;;;;;;8.55;2.22;;;;;;;;;;5002675;28;20223;-66
2022/08/30 08:09:41;;;;;;;7.28;1.85;;;;;;;;;;4982824;28;20034;-65
2022/08/30 08:12:07;;;;;;;9.85;2.15;;;;;;;;;;4985158;28;21288;-65
2022/08/30 08:14:34;;;;;;;6.75;1.95;;;;;;;;;;4998851;28;20480;-66
2022/08/30 08:17:00;;;;;;;6.32;1.88;;;;;;;;;;4998198;28;20136;-67
2022/08/30 08:19:26;;;;;;;7.18;1.80;;;;;;;;;;5003222;28;20025;-66
2022/08/30 08:21:55;;;;;;;6.80;1.92;;;;;;;;;;5000964;28;20037;-66
2022/08/30 08:24:22;;;;;;;7.60;1.88;;;;;;;;;;5010372;28;20025;-66
2022/08/30 08:26:48;;;;;;;6.00;1.85;;;;;;;;;;5005512;28;20120;-66
2022/08/30 08:29:14;;;;;;;5.32;1.88;;;;;;;;;;4990173;28;20502;-66
2022/08/30 08:31:40;;;;;;;6.03;2.00;;;;;;;;;;4988627;28;20057;-66
2022/08/30 08:34:07;;;;;;;9.27;1.90;;;;;;;;;;5006697;28;20115;-65
2022/08/30 08:36:33;;;;;;;6.93;1.95;;;;;;;;;;5010220;28;20037;-66
2022/08/30 08:39:00;;;;;;;5.47;1.60;;;;;;;;;;5006983;28;20057;-66
2022/08/30 08:41:29;;;;;;;8.38;2.30;;;;;;;;;;5006372;28;20080;-66
2022/08/30 08:43:55;;;;;;;8.70;2.10;;;;;;;;;;5006632;28;20341;-66
2022/08/30 08:46:29;;;;;;;6.38;2.00;;;;;;;;;;5009564;28;20069;-66
2022/08/30 08:48:57;;;;;;;8.50;1.83;;;;;;;;;;5006066;28;20052;-66
2022/08/30 08:54:10;;;;;;;7.88;1.92;;;;;;;;;;5008489;28;20509;-66
2022/08/30 08:56:36;;;;;;;5.93;1.65;;;;;;;;;;5007408;28;20416;-65
2022/08/30 08:59:05;;;;;;;6.05;1.55;;;;;;;;;;4992502;28;20469;-67
2022/08/30 09:01:32;;;;;;;6.53;1.83;;;;;;;;;;5010598;28;20107;-66
2022/08/30 09:04:01;;;;;;;8.35;1.67;;;;;;;;;;5005758;28;20132;-66
2022/08/30 09:06:30;;;;;;;7.45;1.65;;;;;;;;;;5009961;28;20193;-66
2022/08/30 09:08:56;;;;;;;6.40;1.60;;;;;;;;;;5006162;28;23477;-66
2022/08/30 09:11:27;;;;;;;9.05;2.03;;;;;;;;;;5009608;28;20029;-66
2022/08/30 09:13:53;;;;;;;5.90;1.63;;;;;;;;;;4990094;28;20471;-67
2022/08/30 09:16:38;;;;;;;7.15;1.50;;;;;;;;;;5010840;28;20043;-66
2022/08/30 09:19:04;;;;;;;8.13;1.50;;;;;;;;;;5007643;28;20495;-66
2022/08/30 09:21:30;;;;;;;6.50;1.55;;;;;;;;;;5009767;28;20180;-67
2022/08/30 09:23:58;;;;;;;7.22;1.83;;;;;;;;;;4989195;28;22871;-66
2022/08/30 09:26:29;;;;;;;8.57;1.60;;;;;;;;;;5007859;28;20030;-67
2022/08/30 09:28:55;;;;;;;5.97;1.50;;;;;;;;;;5006070;28;20033;-67
2022/08/30 09:31:22;;;;;;;9.40;1.58;;;;;;;;;;5007264;28;20033;-65
2022/08/30 09:34:02;;;;;;;8.15;2.00;;;;;;;;;;4986777;28;20369;-67
2022/08/30 09:36:40;;;;;;;10.90;1.90;;;;;;;;;;4985053;28;20041;-67
2022/08/30 09:39:14;;;;;;;6.15;1.60;;;;;;;;;;5004621;28;20048;-67
2022/08/30 09:41:42;;;;;;;9.75;1.50;;;;;;;;;;5004697;28;20060;-67
2022/08/30 09:44:15;;;;;;;5.47;1.50;;;;;;;;;;5006109;28;20033;-67
2022/08/30 09:46:49;;;;;;;6.13;1.70;;;;;;;;;;5002771;28;20033;-67
2022/08/30 09:49:28;;;;;;;7.60;1.75;;;;;;;;;;5004579;28;20450;-66
2022/08/30 09:52:12;;;;;;;8.70;1.50;;;;;;;;;;5003316;28;20033;-66
2022/08/30 09:54:57;;;;;;;10.90;2.20;;;;;;;;;;4986282;28;20056;-66
2022/08/30 09:57:23;;;;;;;6.63;1.70;;;;;;;;;;5006928;28;20044;-67
2022/08/30 09:59:49;;;;;;;5.70;1.52;;;;;;;;;;4987800;28;20033;-66
2022/08/30 10:02:34;;;;;;;11.38;2.00;;;;;;;;;;5001601;28;20375;-67
2022/08/30 10:05:00;;;;;;;7.38;1.60;;;;;;;;;;5004212;28;20271;-66
2022/08/30 10:07:33;;;;;;;6.82;1.65;;;;;;;;;;5005437;28;20195;-67
2022/08/30 10:10:22;;;;;;;5.75;1.67;;;;;;;;;;5003844;28;20152;-68
2022/08/30 10:13:28;;;;;;;6.75;1.40;;;;;;;;;;5002415;28;20044;-68
2022/08/30 10:16:14;;;;;;;8.00;1.50;;;;;;;;;;4983472;28;20818;-66
2022/08/30 10:18:53;;;;;;;8.95;1.50;;;;;;;;;;5001043;28;20029;-66
2022/08/30 10:21:33;;;;;;;8.98;1.73;;;;;;;;;;5005667;28;20041;-66
2022/08/30 10:24:02;;;;;;;5.20;1.65;;;;;;;;;;4986565;28;20277;-66
2022/08/30 10:26:34;;;;;;;6.28;1.80;;;;;;;;;;5006650;28;20037;-66
2022/08/30 10:29:01;;;;;;;6.93;1.65;;;;;;;;;;5000955;28;20044;-67
2022/08/30 10:31:27;;;;;;;8.27;1.60;;;;;;;;;;5005204;28;20122;-67
2022/08/30 10:33:56;;;;;;;9.15;1.67;;;;;;;;;;4999228;28;20719;-67
2022/08/30 10:36:27;;;;;;;8.18;1.70;;;;;;;;;;5003407;28;20049;-67
2022/08/30 10:38:54;;;;;;;8.15;1.70;;;;;;;;;;4985284;28;20034;-66
2022/08/30 10:41:35;;;;;;;5.70;1.30;;;;;;;;;;5002509;28;20064;-67
2022/08/30 10:44:20;;;;;;;6.95;1.80;;;;;;;;;;4999552;28;20025;-66
2022/08/30 10:46:46;;;;;;;8.17;1.60;;;;;;;;;;4998662;28;20033;-67
2022/08/30 10:49:15;;;;;;;6.50;1.52;;;;;;;;;;5003431;28;20267;-67
2022/08/30 10:51:47;;;;;;;7.75;1.60;;;;;;;;;;4997441;28;20025;-66
2022/08/30 10:54:32;;;;;;;6.22;1.50;;;;;;;;;;5004530;28;20026;-66
2022/08/30 10:56:58;;;;;;;11.43;1.93;;;;;;;;;;5000403;28;20037;-66
2022/08/30 10:59:24;;;;;;;9.63;1.88;;;;;;;;;;4991275;28;20319;-65
2022/08/30 11:01:57;;;;;;;9.32;2.15;;;;;;;;;;4982618;28;20546;-66
2022/08/30 11:04:23;;;;;;;7.60;1.75;;;;;;;;;;5001528;28;20028;-66
2022/08/30 11:07:03;;;;;;;8.32;1.65;;;;;;;;;;5000855;28;20454;-66
2022/08/30 11:09:29;;;;;;;8.88;1.88;;;;;;;;;;4999944;28;20037;-65
2022/08/30 11:11:55;;;;;;;5.53;1.23;;;;;;;;;;4983643;28;20037;-66
2022/08/30 11:14:22;;;;;;;6.28;1.55;;;;;;;;;;5005043;28;20120;-67
2022/08/30 11:16:49;;;;;;;7.68;1.58;;;;;;;;;;4984251;28;20463;-66
2022/08/30 11:19:22;;;;;;;9.38;1.38;;;;;;;;;;5004565;28;20057;-66
2022/08/30 11:21:48;;;;;;;8.65;1.55;;;;;;;;;;4998870;28;20103;-66
2022/08/30 11:24:15;;;;;;;7.13;1.70;;;;;;;;;;5002231;28;20022;-65
2022/08/30 11:26:44;;;;;;;9.43;1.77;;;;;;;;;;4977453;28;20491;-65
2022/08/30 11:29:28;;;;;;;7.97;1.73;;;;;;;;;;5002059;28;20560;-67
2022/08/30 11:31:56;;;;;;;10.10;1.60;;;;;;;;;;4999528;28;20404;-67
2022/08/30 11:34:41;;;;;;;11.73;2.22;;;;;;;;;;4983946;28;20041;-66
2022/08/30 11:37:08;;;;;;;7.43;1.60;;;;;;;;;;5000388;28;20037;-67
2022/08/30 11:39:39;;;;;;;7.15;1.88;;;;;;;;;;5003315;28;20042;-66
2022/08/30 11:42:23;;;;;;;8.60;1.70;;;;;;;;;;5002652;28;20029;-67
2022/08/30 11:44:49;;;;;;;9.25;1.70;;;;;;;;;;4997832;28;20171;-66
2022/08/30 11:47:34;;;;;;;8.55;1.60;;;;;;;;;;5001053;28;20183;-67
2022/08/30 11:50:12;;;;;;;11.02;1.90;;;;;;;;;;4975270;28;20451;-67
2022/08/30 11:52:45;;;;;;;11.90;2.00;;;;;;;;;;4978226;28;20698;-67
2022/08/30 11:55:18;;;;;;;8.80;1.67;;;;;;;;;;5002060;28;20071;-67
2022/08/30 11:57:44;;;;;;;8.20;1.70;;;;;;;;;;4998182;28;20352;-66
2022/08/30 12:00:29;;;;;;;8.88;2.00;;;;;;;;;;5001851;28;20305;-66
2022/08/30 12:02:55;;;;;;;6.43;1.58;;;;;;;;;;4998789;28;20450;-66
2022/08/30 12:05:48;;;;;;;7.28;1.88;;;;;;;;;;5001997;28;20033;-67
2022/08/30 12:08:22;;;;;;;8.77;1.83;;;;;;;;;;5002604;28;20029;-67
2022/08/30 12:10:50;;;;;;;8.10;1.52;;;;;;;;;;4999261;28;20373;-67
2022/08/30 12:13:37;;;;;;;10.52;1.90;;;;;;;;;;5001322;28;20383;-66
2022/08/30 12:16:05;;;;;;;10.20;2.05;;;;;;;;;;5002445;28;20071;-66
2022/08/30 12:18:49;;;;;;;10.02;2.28;;;;;;;;;;5002648;28;20033;-67
2022/08/30 12:21:22;;;;;;;8.40;1.83;;;;;;;;;;4981114;28;20053;-66
2022/08/30 12:23:53;;;;;;;9.82;1.70;;;;;;;;;;4998599;28;20039;-66
2022/08/30 12:26:25;;;;;;;8.52;1.70;;;;;;;;;;5001159;28;20478;-66
2022/08/30 12:28:53;;;;;;;8.63;1.80;;;;;;;;;;4999360;28;20700;-67
2022/08/30 12:31:21;;;;;;;6.88;1.60;;;;;;;;;;5002460;28;20105;-66
2022/08/30 12:33:49;;;;;;;7.28;1.90;;;;;;;;;;4998447;28;20043;-67
2022/08/30 12:36:51;;;;;;;8.73;2.00;;;;;;;;;;5003145;28;20439;-66
2022/08/30 12:39:22;;;;;;;9.45;1.98;;;;;;;;;;4907614;28;20039;-67
2022/08/30 12:41:49;;;;;;;9.80;2.17;;;;;;;;;;4918966;28;20047;-66
2022/08/30 12:44:25;;;;;;;8.48;2.20;;;;;;;;;;4924564;28;20561;-67
2022/08/30 12:46:54;;;;;;;9.70;1.83;;;;;;;;;;4917969;28;20138;-68
2022/08/30 12:49:21;;;;;;;10.43;2.20;;;;;;;;;;4921265;28;20063;-66
2022/08/30 12:51:47;;;;;;;10.70;2.25;;;;;;;;;;4918724;28;20043;-67
2022/08/30 12:54:16;;;;;;;9.80;1.98;;;;;;;;;;4925503;28;20091;-67
2022/08/30 12:56:46;;;;;;;8.43;2.00;;;;;;;;;;4916309;28;20502;-67
2022/08/30 12:59:32;;;;;;;11.15;2.20;;;;;;;;;;4922457;28;20066;-67
2022/08/30 13:02:28;;;;;;;7.28;1.75;;;;;;;;;;4918644;28;20043;-67
2022/08/30 13:04:56;;;;;;;9.02;1.83;;;;;;;;;;4878316;29;20060;-66
2022/08/30 13:07:26;;;;;;;9.55;2.00;;;;;;;;;;4884057;29;20075;-67
2022/08/30 13:10:00;;;;;;;7.82;1.98;;;;;;;;;;4884155;29;20164;-67
2022/08/30 13:12:27;;;;;;;9.73;2.00;;;;;;;;;;4893232;28;20086;-67
2022/08/30 13:14:53;;;;;;;7.32;1.50;;;;;;;;;;4923898;28;20540;-67
2022/08/30 13:17:19;;;;;;;10.02;2.15;;;;;;;;;;4927169;28;20031;-66
2022/08/30 13:19:56;;;;;;;9.85;2.15;;;;;;;;;;4922287;28;20039;-67
2022/08/30 13:22:29;;;;;;;9.98;2.30;;;;;;;;;;4925539;28;20105;-67
2022/08/30 13:24:56;;;;;;;11.60;1.90;;;;;;;;;;4923319;28;20028;-68
2022/08/30 13:27:22;;;;;;;9.10;1.95;;;;;;;;;;4925829;28;20303;-68
2022/08/30 13:29:48;;;;;;;6.95;1.60;;;;;;;;;;4924704;28;20194;-69
2022/08/30 13:32:14;;;;;;;7.78;2.10;;;;;;;;;;4913484;28;20410;-69
2022/08/30 13:34:41;;;;;;;8.02;2.10;;;;;;;;;;4924522;28;20567;-67
2022/08/30 13:37:09;;;;;;;8.95;2.00;;;;;;;;;;4943611;28;20066;-69
2022/08/30 13:39:35;;;;;;;11.18;2.22;;;;;;;;;;4943593;28;20109;-67
2022/08/30 13:42:01;;;;;;;10.35;2.15;;;;;;;;;;4990156;28;20051;-67
2022/08/30 13:44:28;;;;;;;11.02;2.55;;;;;;;;;;5004852;28;20029;-67
2022/08/30 13:46:55;;;;;;;11.90;2.10;;;;;;;;;;5001666;28;20065;-68
2022/08/30 13:49:23;;;;;;;11.48;1.95;;;;;;;;;;5003110;28;20033;-68
2022/08/30 13:51:52;;;;;;;7.55;1.80;;;;;;;;;;5001636;28;20346;-66
2022/08/30 13:54:20;;;;;;;7.55;1.60;;;;;;;;;;5004117;28;20181;-68
2022/08/30 13:56:47;;;;;;;11.95;2.05;;;;;;;;;;5000893;28;20183;-67
2022/08/30 13:59:13;;;;;;;8.10;2.00;;;;;;;;;;5006548;28;20637;-67
2022/08/30 14:01:40;;;;;;;9.43;2.03;;;;;;;;;;5003738;28;20128;-67
2022/08/30 14:04:06;;;;;;;7.57;1.67;;;;;;;;;;5007278;28;20358;-68
2022/08/30 14:06:32;;;;;;;7.90;2.00;;;;;;;;;;5006535;28;20087;-67
2022/08/30 14:08:58;;;;;;;9.93;2.08;;;;;;;;;;4999982;28;20487;-66
2022/08/30 14:11:24;;;;;;;9.82;2.10;;;;;;;;;;5005549;28;20040;-68
2022/08/30 14:13:51;;;;;;;9.68;2.03;;;;;;;;;;5003111;28;20124;-67
2022/08/30 14:16:17;;;;;;;7.07;1.90;;;;;;;;;;5004890;28;20072;-67
2022/08/30 14:18:43;;;;;;;7.07;1.73;;;;;;;;;;4998612;28;20094;-67
2022/08/30 14:21:09;;;;;;;10.88;1.85;;;;;;;;;;5007156;28;20064;-68
2022/08/30 14:23:36;;;;;;;8.55;2.05;;;;;;;;;;5006216;28;20041;-67
2022/08/30 14:26:04;;;;;;;8.48;1.63;;;;;;;;;;5005319;28;20033;-67
2022/08/30 14:28:44;;;;;;;;;;;;;;;;;;;;;
2022/08/30 14:31:11;;;;;;;5.38;1.60;;;;;;;;;;4977350;28;20033;-68
2022/08/30 14:33:37;;;;;;;5.80;1.70;;;;;;;;;;5002618;28;20067;-67
2022/08/30 14:36:04;;;;;;;6.53;1.60;;;;;;;;;;4990542;28;20046;-67
2022/08/30 14:38:30;;;;;;;7.07;1.80;;;;;;;;;;5004258;28;20073;-66
2022/08/30 14:40:57;;;;;;;11.48;2.15;;;;;;;;;;5003288;28;21553;-66
2022/08/30 14:43:23;;;;;;;8.20;1.80;;;;;;;;;;4987668;28;20462;-67
2022/08/30 14:45:49;;;;;;;8.52;1.73;;;;;;;;;;4985337;28;20116;-67
2022/08/30 14:48:15;;;;;;;7.72;1.60;;;;;;;;;;5002743;28;20040;-67
2022/08/30 14:50:41;;;;;;;9.00;1.85;;;;;;;;;;4999415;28;20025;-68
2022/08/30 14:53:07;;;;;;;7.35;2.10;;;;;;;;;;5004326;28;20075;-69